Time;durP1;ratioP1;P1;durP2;ratioP2;P2;SDS_P1;SDS_P2;PMS_P1;PMS_P2;Temp;Humidity;BMP_temperature;BMP_pressure;BME280_temperature;BME280_humidity;BME280_pressure;Samples;Min_cycle;Max_cycle;Signal;HPM_P1;HPM_P2
2022/04/11 00:00:50;;;;;;;5.80;1.83;;;;;;;;;;6146841;23;20023;-89
2022/04/11 00:03:16;;;;;;;3.08;1.65;;;;;;;;;;6120696;23;20039;-90
2022/04/11 00:05:45;;;;;;;2.97;1.90;;;;;;;;;;6147121;23;20009;-89
2022/04/11 00:08:11;;;;;;;2.90;2.00;;;;;;;;;;6121828;23;20009;-90
2022/04/11 00:10:37;;;;;;;1.90;1.67;;;;;;;;;;6147769;23;20084;-90
2022/04/11 00:13:08;;;;;;;2.95;1.58;;;;;;;;;;6120668;23;20052;-90
2022/04/11 00:15:34;;;;;;;3.45;1.70;;;;;;;;;;6146523;23;20345;-91
2022/04/11 00:18:01;;;;;;;1.88;1.73;;;;;;;;;;6146777;23;20408;-92
2022/04/11 00:20:28;;;;;;;4.90;2.58;;;;;;;;;;6120764;23;20006;-90
2022/04/11 00:22:56;;;;;;;1.92;1.73;;;;;;;;;;6146576;23;20005;-91
2022/04/11 00:25:22;;;;;;;;;;;;;;;;;;6147042;23;20010;-90
2022/04/11 00:27:48;;;;;;;14.52;2.13;;;;;;;;;;6146632;22;19948;-90
2022/04/11 00:30:15;;;;;;;1.80;1.70;;;;;;;;;;6146943;23;20006;-90
2022/04/11 00:32:43;;;;;;;5.35;1.83;;;;;;;;;;6121493;23;20030;-90
2022/04/11 00:35:10;;;;;;;3.45;1.70;;;;;;;;;;6147502;23;20033;-89
2022/04/11 00:37:37;;;;;;;2.33;1.80;;;;;;;;;;6120227;23;20010;-89
2022/04/11 00:40:03;;;;;;;3.40;1.90;;;;;;;;;;6146051;23;20060;-90
2022/04/11 00:42:31;;;;;;;1.88;1.67;;;;;;;;;;6146388;23;20017;-89
2022/04/11 00:44:57;;;;;;;1.90;1.80;;;;;;;;;;6146480;23;20447;-90
2022/04/11 00:47:23;;;;;;;2.10;1.70;;;;;;;;;;6120527;23;20006;-91
2022/04/11 00:49:52;;;;;;;4.05;1.80;;;;;;;;;;6146299;23;20009;-90
2022/04/11 00:52:20;;;;;;;2.85;1.98;;;;;;;;;;6119972;23;20002;-91
2022/04/11 00:54:46;;;;;;;6.32;1.73;;;;;;;;;;6146171;23;19998;-89
2022/04/11 00:57:15;;;;;;;1.90;1.80;;;;;;;;;;6121065;23;20507;-89
2022/04/11 00:59:41;;;;;;;2.08;1.70;;;;;;;;;;6121330;23;20006;-87
2022/04/11 01:02:07;;;;;;;2.17;1.90;;;;;;;;;;6120107;23;20442;-89
2022/04/11 01:04:34;;;;;;;2.33;1.70;;;;;;;;;;6119861;23;20017;-90
2022/04/11 01:07:00;;;;;;;2.88;1.70;;;;;;;;;;6146375;23;20054;-89
2022/04/11 01:09:27;;;;;;;2.63;2.00;;;;;;;;;;6146038;23;20005;-90
2022/04/11 01:11:53;;;;;;;2.75;1.70;;;;;;;;;;6146250;23;20544;-89
2022/04/11 01:14:20;;;;;;;1.85;1.75;;;;;;;;;;6146285;23;20099;-89
2022/04/11 01:16:50;;;;;;;2.00;1.90;;;;;;;;;;6146343;23;19998;-88
2022/04/11 01:19:16;;;;;;;2.20;2.00;;;;;;;;;;6120300;23;20014;-90
2022/04/11 01:21:43;;;;;;;2.20;1.80;;;;;;;;;;6147038;23;20002;-90
2022/04/11 01:24:09;;;;;;;3.58;2.00;;;;;;;;;;6119683;23;20025;-88
2022/04/11 01:26:36;;;;;;;3.30;2.00;;;;;;;;;;6146192;23;20335;-90
2022/04/11 01:29:04;;;;;;;2.42;2.15;;;;;;;;;;6120232;23;20005;-90
2022/04/11 01:31:30;;;;;;;3.40;1.90;;;;;;;;;;6145912;23;20081;-89
2022/04/11 01:33:56;;;;;;;2.35;1.80;;;;;;;;;;6119904;23;20012;-90
2022/04/11 01:36:23;;;;;;;2.85;2.03;;;;;;;;;;6120054;23;20031;-90
2022/04/11 01:38:52;;;;;;;3.50;1.88;;;;;;;;;;6145963;23;20048;-90
2022/04/11 01:41:19;;;;;;;2.55;2.00;;;;;;;;;;6145737;23;20059;-91
2022/04/11 01:43:46;;;;;;;3.05;2.13;;;;;;;;;;6147065;23;20041;-90
2022/04/11 01:46:12;;;;;;;1.80;1.70;;;;;;;;;;6147203;23;20009;-90
2022/04/11 01:48:38;;;;;;;3.17;2.08;;;;;;;;;;6121292;23;20445;-89
2022/04/11 01:51:05;;;;;;;1.85;1.67;;;;;;;;;;6121382;23;20055;-89
2022/04/11 01:53:31;;;;;;;1.98;1.80;;;;;;;;;;6147577;23;20001;-88
2022/04/11 01:55:57;;;;;;;4.50;2.10;;;;;;;;;;6121301;23;20012;-91
2022/04/11 01:58:23;;;;;;;2.20;1.90;;;;;;;;;;6147131;23;20047;-89
2022/04/11 02:00:49;;;;;;;2.08;1.90;;;;;;;;;;6147285;23;20434;-88
2022/04/11 02:03:15;;;;;;;1.90;1.80;;;;;;;;;;6122348;23;20341;-88
2022/04/11 02:05:43;;;;;;;2.72;2.00;;;;;;;;;;6148079;23;20080;-89
2022/04/11 02:08:10;;;;;;;2.90;2.00;;;;;;;;;;6121236;23;20051;-92
2022/04/11 02:10:39;;;;;;;2.15;1.95;;;;;;;;;;6121289;23;20009;-91
2022/04/11 02:13:06;;;;;;;2.15;1.90;;;;;;;;;;6147178;23;20321;-88
2022/04/11 02:15:33;;;;;;;2.47;1.90;;;;;;;;;;6147073;23;20024;-88
2022/04/11 02:17:59;;;;;;;2.03;1.80;;;;;;;;;;6146997;23;20008;-89
2022/04/11 02:20:26;;;;;;;1.95;1.75;;;;;;;;;;6146782;23;20345;-87
2022/04/11 02:22:55;;;;;;;5.90;2.05;;;;;;;;;;6147064;23;20491;-88
2022/04/11 02:25:33;;;;;;;2.53;1.90;;;;;;;;;;6120974;23;20404;-89
2022/04/11 02:27:59;;;;;;;2.80;2.10;;;;;;;;;;6120817;23;20040;-86
2022/04/11 02:30:25;;;;;;;2.97;2.00;;;;;;;;;;6121677;23;20241;-90
2022/04/11 02:32:52;;;;;;;2.25;1.90;;;;;;;;;;6147505;23;20008;-89
2022/04/11 02:35:18;;;;;;;2.75;1.90;;;;;;;;;;6122970;23;20425;-88
2022/04/11 02:37:45;;;;;;;2.47;1.88;;;;;;;;;;6122912;23;20015;-89
2022/04/11 02:40:12;;;;;;;1.70;1.60;;;;;;;;;;6121306;22;20006;-89
2022/04/11 02:42:40;;;;;;;2.15;2.00;;;;;;;;;;6147517;23;20006;-89
2022/04/11 02:45:09;;;;;;;2.13;1.92;;;;;;;;;;6147423;23;20010;-89
2022/04/11 02:47:35;;;;;;;;;;;;;;;;;;6121479;23;20009;-89
2022/04/11 02:50:04;;;;;;;4.30;2.00;;;;;;;;;;6121576;23;19900;-90
2022/04/11 02:52:45;;;;;;;2.20;2.00;;;;;;;;;;6121522;23;20324;-90
2022/04/11 02:55:13;;;;;;;4.00;1.80;;;;;;;;;;6147247;23;20001;-91
2022/04/11 02:57:40;;;;;;;1.90;1.80;;;;;;;;;;6121552;23;20012;-89
2022/04/11 03:00:08;;;;;;;2.00;1.80;;;;;;;;;;6120408;23;20336;-89
2022/04/11 03:02:34;;;;;;;2.28;1.92;;;;;;;;;;6148900;23;20001;-90
2022/04/11 03:05:00;;;;;;;2.17;1.98;;;;;;;;;;6147730;23;20010;-89
2022/04/11 03:07:27;;;;;;;2.22;2.00;;;;;;;;;;6121126;23;20009;-90
2022/04/11 03:09:54;;;;;;;4.10;1.80;;;;;;;;;;6146893;23;20453;-91
2022/04/11 03:12:22;;;;;;;2.22;2.00;;;;;;;;;;6148065;23;20002;-89
2022/04/11 03:14:49;;;;;;;2.05;1.92;;;;;;;;;;6148156;23;20040;-91
2022/04/11 03:17:15;;;;;;;2.10;1.90;;;;;;;;;;6147090;23;20013;-91
2022/04/11 03:19:42;;;;;;;3.30;2.20;;;;;;;;;;6121176;23;20009;-90
2022/04/11 03:22:09;;;;;;;3.13;1.92;;;;;;;;;;6146894;23;20059;-91
2022/04/11 03:24:35;;;;;;;2.55;2.00;;;;;;;;;;6120354;23;20406;-88
2022/04/11 03:27:01;;;;;;;3.33;2.00;;;;;;;;;;6146721;23;20063;-90
2022/04/11 03:29:27;;;;;;;2.00;1.90;;;;;;;;;;6120940;23;20085;-90
2022/04/11 03:31:53;;;;;;;2.35;2.15;;;;;;;;;;6121164;23;20001;-90
2022/04/11 03:34:22;;;;;;;5.10;2.05;;;;;;;;;;6122009;23;20014;-90
2022/04/11 03:36:51;;;;;;;4.10;1.98;;;;;;;;;;6121907;23;20086;-90
2022/04/11 03:39:17;;;;;;;2.03;1.83;;;;;;;;;;6147819;23;20025;-90
2022/04/11 03:41:43;;;;;;;2.17;1.95;;;;;;;;;;6121164;23;20044;-90
2022/04/11 03:44:12;;;;;;;1.90;1.80;;;;;;;;;;6121649;23;20059;-91
2022/04/11 03:46:38;;;;;;;;;;;;;;;;;;6121804;23;20104;-89
2022/04/11 03:49:06;;;;;;;1.85;1.75;;;;;;;;;;6121312;23;19937;-93
2022/04/11 03:51:35;;;;;;;3.38;2.40;;;;;;;;;;6147670;23;20055;-91
2022/04/11 03:54:01;;;;;;;2.30;2.10;;;;;;;;;;6120929;23;20005;-90
2022/04/11 03:56:27;;;;;;;2.75;2.20;;;;;;;;;;6148410;23;20001;-93
2022/04/11 03:58:53;;;;;;;4.28;2.22;;;;;;;;;;6123450;23;20032;-88
2022/04/11 04:01:19;;;;;;;2.28;1.98;;;;;;;;;;6121141;23;20047;-87
2022/04/11 04:03:45;;;;;;;2.10;1.90;;;;;;;;;;6119138;23;20500;-88
2022/04/11 04:06:11;;;;;;;2.13;1.90;;;;;;;;;;6145664;23;20009;-87
2022/04/11 04:08:38;;;;;;;1.90;1.80;;;;;;;;;;6145392;23;19997;-86
2022/04/11 04:11:04;;;;;;;4.85;2.17;;;;;;;;;;6118688;23;20485;-88
2022/04/11 04:13:30;;;;;;;1.90;1.80;;;;;;;;;;6145762;23;20002;-86
2022/04/11 04:15:56;;;;;;;3.22;2.05;;;;;;;;;;6146130;23;20002;-87
2022/04/11 04:18:22;;;;;;;2.65;1.92;;;;;;;;;;6146991;23;20076;-86
2022/04/11 04:20:48;;;;;;;2.83;1.90;;;;;;;;;;6120015;22;20461;-86
2022/04/11 04:23:16;;;;;;;2.30;2.13;;;;;;;;;;6146598;23;20006;-86
2022/04/11 04:25:42;;;;;;;5.75;1.80;;;;;;;;;;6146436;23;20081;-87
2022/04/11 04:28:08;;;;;;;3.85;1.98;;;;;;;;;;6146224;23;19998;-88
2022/04/11 04:30:35;;;;;;;3.17;1.80;;;;;;;;;;6120228;23;20014;-88
2022/04/11 04:33:01;;;;;;;2.22;2.03;;;;;;;;;;6119658;23;20339;-88
2022/04/11 04:35:27;;;;;;;3.00;1.83;;;;;;;;;;6145794;23;20071;-88
2022/04/11 04:37:54;;;;;;;4.97;2.00;;;;;;;;;;6146472;23;20005;-90
2022/04/11 04:40:20;;;;;;;2.08;1.88;;;;;;;;;;6115499;23;20010;-88
2022/04/11 04:42:46;;;;;;;3.38;1.92;;;;;;;;;;6117691;23;20441;-88
2022/04/11 04:45:12;;;;;;;1.80;1.70;;;;;;;;;;6144839;23;20058;-89
2022/04/11 04:47:39;;;;;;;2.33;1.90;;;;;;;;;;6145713;23;19998;-88
2022/04/11 04:50:05;;;;;;;3.70;2.10;;;;;;;;;;6145077;23;20350;-88
2022/04/11 04:52:31;;;;;;;2.10;1.90;;;;;;;;;;6145194;23;20005;-88
2022/04/11 04:54:57;;;;;;;4.95;2.20;;;;;;;;;;6120114;23;20014;-88
2022/04/11 04:57:23;;;;;;;3.25;2.10;;;;;;;;;;6146054;23;19998;-89
2022/04/11 04:59:49;;;;;;;2.00;1.90;;;;;;;;;;6145342;23;20005;-88
2022/04/11 05:02:15;;;;;;;2.20;1.92;;;;;;;;;;6119342;23;20009;-89
2022/04/11 05:04:41;;;;;;;2.08;1.95;;;;;;;;;;6144956;23;20014;-88
2022/04/11 05:07:07;;;;;;;3.45;1.95;;;;;;;;;;6119428;23;20098;-89
2022/04/11 05:09:33;;;;;;;2.47;2.00;;;;;;;;;;6145132;23;20721;-88
2022/04/11 05:11:59;;;;;;;3.10;1.90;;;;;;;;;;6119356;23;20005;-89
2022/04/11 05:14:25;;;;;;;3.28;1.80;;;;;;;;;;6146579;23;20034;-89
2022/04/11 05:16:52;;;;;;;2.90;2.10;;;;;;;;;;6145496;23;20379;-88
2022/04/11 05:19:18;;;;;;;3.65;2.15;;;;;;;;;;6145156;23;20487;-87
2022/04/11 05:21:44;;;;;;;2.80;1.90;;;;;;;;;;6145381;23;20001;-90
2022/04/11 05:24:10;;;;;;;2.10;1.90;;;;;;;;;;6147282;23;20506;-90
2022/04/11 05:26:36;;;;;;;2.55;2.00;;;;;;;;;;6121053;23;20025;-90
2022/04/11 05:29:03;;;;;;;5.45;2.05;;;;;;;;;;6121001;23;20338;-87
2022/04/11 05:31:29;;;;;;;3.28;2.05;;;;;;;;;;6121294;23;20430;-90
2022/04/11 05:33:55;;;;;;;3.47;1.73;;;;;;;;;;6121895;23;20036;-90
2022/04/11 05:36:21;;;;;;;1.95;1.80;;;;;;;;;;6147102;23;20004;-89
2022/04/11 05:38:47;;;;;;;2.20;2.00;;;;;;;;;;6147099;23;20002;-89
2022/04/11 05:41:14;;;;;;;2.70;1.77;;;;;;;;;;6146970;23;20080;-89
2022/04/11 05:43:41;;;;;;;2.42;2.03;;;;;;;;;;6146970;23;20519;-88
2022/04/11 05:46:07;;;;;;;2.70;1.80;;;;;;;;;;6147072;23;20087;-90
2022/04/11 05:48:34;;;;;;;4.50;2.00;;;;;;;;;;6120710;23;20072;-90
2022/04/11 05:51:00;;;;;;;2.95;1.83;;;;;;;;;;6121110;23;20401;-89
2022/04/11 05:53:26;;;;;;;4.13;1.90;;;;;;;;;;6122004;23;20005;-90
2022/04/11 05:55:52;;;;;;;4.00;2.50;;;;;;;;;;6120984;23;20006;-89
2022/04/11 05:58:18;;;;;;;4.80;1.95;;;;;;;;;;6146891;23;20065;-89
2022/04/11 06:00:44;;;;;;;2.13;1.80;;;;;;;;;;6121063;23;20013;-88
2022/04/11 06:03:10;;;;;;;5.95;2.15;;;;;;;;;;6146928;23;20382;-90
2022/04/11 06:05:37;;;;;;;3.95;2.13;;;;;;;;;;6147225;23;20014;-89
2022/04/11 06:08:03;;;;;;;1.98;1.80;;;;;;;;;;6121006;23;20059;-90
2022/04/11 06:10:30;;;;;;;2.60;1.92;;;;;;;;;;6121525;23;20087;-89
2022/04/11 06:12:56;;;;;;;4.32;2.10;;;;;;;;;;6148065;23;20051;-89
2022/04/11 06:15:22;;;;;;;2.80;2.00;;;;;;;;;;6146947;23;19997;-90
2022/04/11 06:17:48;;;;;;;3.08;2.05;;;;;;;;;;6146798;23;20033;-89
2022/04/11 06:20:14;;;;;;;2.47;1.92;;;;;;;;;;6147333;23;20001;-89
2022/04/11 06:22:40;;;;;;;5.47;1.90;;;;;;;;;;6147186;23;20464;-90
2022/04/11 06:25:08;;;;;;;1.88;1.60;;;;;;;;;;6120844;23;20021;-90
2022/04/11 06:27:34;;;;;;;2.60;1.80;;;;;;;;;;6146989;23;20002;-89
2022/04/11 06:30:01;;;;;;;2.20;1.90;;;;;;;;;;6147756;23;20036;-89
2022/04/11 06:32:28;;;;;;;2.13;1.70;;;;;;;;;;6121732;23;19998;-90
2022/04/11 06:34:54;;;;;;;3.10;1.80;;;;;;;;;;6146843;23;20324;-89
2022/04/11 06:37:21;;;;;;;1.90;1.80;;;;;;;;;;6121389;23;20059;-90
2022/04/11 06:39:47;;;;;;;2.40;1.80;;;;;;;;;;6147246;23;20006;-90
2022/04/11 06:42:13;;;;;;;3.22;1.63;;;;;;;;;;6146570;23;20033;-90
2022/04/11 06:44:39;;;;;;;2.78;1.75;;;;;;;;;;6146678;23;20465;-89
2022/04/11 06:47:06;;;;;;;2.90;1.60;;;;;;;;;;6120610;23;20010;-89
2022/04/11 06:49:32;;;;;;;2.58;1.63;;;;;;;;;;6120955;23;20051;-89
2022/04/11 06:51:59;;;;;;;3.67;1.75;;;;;;;;;;6147922;23;20001;-89
2022/04/11 06:54:25;;;;;;;2.25;1.90;;;;;;;;;;6120679;23;20005;-89
2022/04/11 06:56:51;;;;;;;2.53;1.75;;;;;;;;;;6146814;23;20002;-89
2022/04/11 06:59:17;;;;;;;3.40;1.90;;;;;;;;;;6146626;23;20032;-89
2022/04/11 07:01:43;;;;;;;1.92;1.77;;;;;;;;;;6146724;23;20013;-90
2022/04/11 07:04:09;;;;;;;3.38;1.80;;;;;;;;;;6120496;23;20017;-89
2022/04/11 07:06:35;;;;;;;2.42;1.63;;;;;;;;;;6145537;23;20342;-89
2022/04/11 07:09:01;;;;;;;1.98;1.83;;;;;;;;;;6120706;23;20025;-89
2022/04/11 07:11:31;;;;;;;2.95;1.90;;;;;;;;;;6146339;23;20006;-88
2022/04/11 07:13:57;;;;;;;1.85;1.75;;;;;;;;;;6119395;23;20006;-89
2022/04/11 07:16:26;;;;;;;2.67;1.90;;;;;;;;;;6145337;23;20009;-89
2022/04/11 07:18:52;;;;;;;5.40;2.05;;;;;;;;;;6145871;23;20361;-89
2022/04/11 07:21:19;;;;;;;4.18;3.00;;;;;;;;;;6145849;23;20002;-89
2022/04/11 07:23:45;;;;;;;5.97;1.77;;;;;;;;;;6145371;23;20050;-89
2022/04/11 07:26:11;;;;;;;3.83;2.00;;;;;;;;;;6119239;23;20009;-88
2022/04/11 07:28:37;;;;;;;2.92;1.70;;;;;;;;;;6146184;23;20002;-88
2022/04/11 07:31:04;;;;;;;4.25;1.90;;;;;;;;;;6120548;23;20009;-88
2022/04/11 07:33:30;;;;;;;1.83;1.60;;;;;;;;;;6121603;23;20055;-88
2022/04/11 07:35:56;;;;;;;1.83;1.70;;;;;;;;;;6146624;23;20005;-88
2022/04/11 07:38:22;;;;;;;2.58;1.80;;;;;;;;;;6119739;23;20017;-89
2022/04/11 07:40:48;;;;;;;4.40;2.05;;;;;;;;;;6145576;23;20005;-89
2022/04/11 07:43:14;;;;;;;3.80;1.60;;;;;;;;;;6119127;23;20096;-89
2022/04/11 07:45:41;;;;;;;4.63;1.92;;;;;;;;;;6118852;23;20454;-89
2022/04/11 07:48:07;;;;;;;1.70;1.60;;;;;;;;;;6145436;23;20078;-89
2022/04/11 07:50:33;;;;;;;3.88;1.92;;;;;;;;;;6145678;23;20014;-89
2022/04/11 07:52:59;;;;;;;4.47;2.15;;;;;;;;;;6146739;23;20004;-89
2022/04/11 07:55:26;;;;;;;3.83;2.25;;;;;;;;;;6145929;23;20005;-89
2022/04/11 07:57:53;;;;;;;5.47;2.85;;;;;;;;;;6119732;23;20005;-90
2022/04/11 08:00:20;;;;;;;6.75;4.13;;;;;;;;;;6120160;23;20509;-89
2022/04/11 08:02:46;;;;;;;9.30;4.38;;;;;;;;;;6119837;23;20013;-90
2022/04/11 08:05:12;;;;;;;10.57;7.50;;;;;;;;;;6143996;23;20010;-90
2022/04/11 08:07:39;;;;;;;9.95;6.43;;;;;;;;;;6145546;23;20076;-90
2022/04/11 08:10:06;;;;;;;3.10;2.53;;;;;;;;;;6119359;23;20013;-90
2022/04/11 08:12:33;;;;;;;2.97;2.33;;;;;;;;;;6146279;23;19998;-88
2022/04/11 08:14:59;;;;;;;3.22;2.92;;;;;;;;;;6120648;23;20006;-89
2022/04/11 08:17:25;;;;;;;1.83;1.67;;;;;;;;;;6120410;23;20001;-89
2022/04/11 08:19:51;;;;;;;3.25;1.98;;;;;;;;;;6120068;23;20010;-91
2022/04/11 08:22:18;;;;;;;3.45;2.33;;;;;;;;;;6147009;23;20003;-89
2022/04/11 08:24:44;;;;;;;1.98;1.70;;;;;;;;;;6146845;23;20044;-89
2022/04/11 08:27:10;;;;;;;2.58;2.10;;;;;;;;;;6146069;23;20387;-90
2022/04/11 08:29:36;;;;;;;2.78;1.88;;;;;;;;;;6146764;23;20016;-89
2022/04/11 08:32:02;;;;;;;1.83;1.60;;;;;;;;;;6121922;23;20029;-91
2022/04/11 08:34:28;;;;;;;1.80;1.70;;;;;;;;;;6146951;23;20006;-89
2022/04/11 08:36:55;;;;;;;2.30;1.60;;;;;;;;;;6120546;23;19997;-90
2022/04/11 08:39:21;;;;;;;4.18;1.60;;;;;;;;;;6119564;23;20005;-89
2022/04/11 08:41:47;;;;;;;2.08;1.70;;;;;;;;;;6145513;23;20038;-90
2022/04/11 08:44:15;;;;;;;5.30;2.00;;;;;;;;;;6120720;23;20460;-89
2022/04/11 08:46:42;;;;;;;5.63;2.67;;;;;;;;;;6120684;23;20008;-90
2022/04/11 08:49:08;;;;;;;3.17;2.35;;;;;;;;;;6149170;23;20005;-89
2022/04/11 08:51:35;;;;;;;4.32;2.10;;;;;;;;;;6149580;23;20076;-89
2022/04/11 08:54:05;;;;;;;5.07;2.00;;;;;;;;;;6125040;23;20008;-90
2022/04/11 08:56:31;;;;;;;3.90;1.95;;;;;;;;;;6122086;23;20385;-89
2022/04/11 08:58:58;;;;;;;9.48;1.95;;;;;;;;;;6122107;22;20087;-89
2022/04/11 09:01:25;;;;;;;2.92;1.90;;;;;;;;;;6121898;23;20354;-89
2022/04/11 09:03:53;;;;;;;1.80;1.70;;;;;;;;;;6121525;23;20009;-89
2022/04/11 09:06:23;;;;;;;2.95;1.90;;;;;;;;;;6121813;23;20019;-89
2022/04/11 09:08:50;;;;;;;2.40;2.20;;;;;;;;;;6120779;23;20002;-90
2022/04/11 09:11:31;;;;;;;2.00;1.80;;;;;;;;;;6121985;23;20456;-89
2022/04/11 09:14:00;;;;;;;2.75;1.80;;;;;;;;;;6121870;23;20009;-90
2022/04/11 09:16:26;;;;;;;5.47;1.88;;;;;;;;;;6147682;23;20025;-90
2022/04/11 09:18:53;;;;;;;3.67;2.55;;;;;;;;;;6120661;23;20392;-89
2022/04/11 09:21:20;;;;;;;8.57;2.10;;;;;;;;;;6145791;23;20279;-89
2022/04/11 09:23:47;;;;;;;4.30;2.35;;;;;;;;;;6146196;23;20018;-90
2022/04/11 09:26:23;;;;;;;7.32;2.15;;;;;;;;;;6145972;23;20002;-89
2022/04/11 09:28:58;;;;;;;3.60;2.40;;;;;;;;;;6145893;23;20024;-90
2022/04/11 09:31:25;;;;;;;4.43;1.88;;;;;;;;;;6146129;23;20069;-89
2022/04/11 09:33:52;;;;;;;3.50;2.30;;;;;;;;;;6120955;23;20002;-89
2022/04/11 09:36:20;;;;;;;3.55;2.35;;;;;;;;;;6146283;23;20009;-89
2022/04/11 09:38:56;;;;;;;2.53;1.85;;;;;;;;;;6119923;23;20108;-90
2022/04/11 09:41:27;;;;;;;6.60;2.50;;;;;;;;;;6146070;23;20093;-89
2022/04/11 09:43:53;;;;;;;6.53;2.40;;;;;;;;;;6145901;23;20348;-89
2022/04/11 09:46:19;;;;;;;5.57;2.25;;;;;;;;;;6145612;23;20084;-90
2022/04/11 09:48:45;;;;;;;3.35;2.10;;;;;;;;;;6145923;23;20457;-88
2022/04/11 09:51:15;;;;;;;3.92;1.85;;;;;;;;;;6145829;23;20385;-88
2022/04/11 09:53:42;;;;;;;4.43;2.05;;;;;;;;;;6145550;23;20005;-89
2022/04/11 09:56:09;;;;;;;6.40;1.80;;;;;;;;;;6145876;23;20022;-88
2022/04/11 09:58:36;;;;;;;4.20;1.75;;;;;;;;;;6120248;23;20005;-88
2022/04/11 10:01:03;;;;;;;2.25;1.90;;;;;;;;;;6146730;23;20029;-89
2022/04/11 10:03:29;;;;;;;4.43;1.70;;;;;;;;;;6119977;22;20370;-90
2022/04/11 10:05:56;;;;;;;4.68;1.70;;;;;;;;;;6145670;23;20013;-89
2022/04/11 10:08:25;;;;;;;2.70;1.98;;;;;;;;;;6145389;23;19998;-90
2022/04/11 10:10:52;;;;;;;5.45;2.05;;;;;;;;;;6146876;23;20479;-89
2022/04/11 10:13:18;;;;;;;5.38;2.00;;;;;;;;;;6146810;23;19998;-89
2022/04/11 10:15:46;;;;;;;7.50;1.95;;;;;;;;;;6147150;23;20009;-89
2022/04/11 10:18:16;;;;;;;3.05;1.90;;;;;;;;;;6147249;23;20001;-89
2022/04/11 10:20:49;;;;;;;5.10;1.90;;;;;;;;;;6144256;23;20002;-90
2022/04/11 10:23:32;;;;;;;4.10;1.88;;;;;;;;;;6146941;23;20034;-89
2022/04/11 10:25:59;;;;;;;2.88;1.90;;;;;;;;;;6121076;23;20013;-89
2022/04/11 10:28:28;;;;;;;5.20;2.25;;;;;;;;;;6147372;23;20405;-90
2022/04/11 10:31:06;;;;;;;3.83;2.10;;;;;;;;;;6146932;23;20505;-89
2022/04/11 10:33:45;;;;;;;6.35;1.60;;;;;;;;;;6121887;23;20086;-89
2022/04/11 10:36:29;;;;;;;4.15;1.90;;;;;;;;;;6120237;23;20009;-89
2022/04/11 10:39:13;;;;;;;5.28;1.90;;;;;;;;;;6121187;23;20755;-89
2022/04/11 10:41:55;;;;;;;4.90;2.20;;;;;;;;;;6146877;23;20014;-89
2022/04/11 10:44:34;;;;;;;7.47;1.92;;;;;;;;;;6120814;23;20040;-90
2022/04/11 10:47:12;;;;;;;6.50;1.90;;;;;;;;;;6146720;23;20006;-89
2022/04/11 10:49:50;;;;;;;8.07;1.90;;;;;;;;;;6121081;23;20342;-90
2022/04/11 10:52:16;;;;;;;;;;;;;;;;;;6150064;23;20446;-92
2022/04/11 10:54:48;;;;;;;3.70;2.00;;;;;;;;;;6147732;22;19951;-89
2022/04/11 10:57:31;;;;;;;2.35;1.73;;;;;;;;;;6121301;23;20006;-89
2022/04/11 11:00:14;;;;;;;3.22;1.90;;;;;;;;;;6122021;23;20097;-90
2022/04/11 11:03:00;;;;;;;4.22;2.10;;;;;;;;;;6146651;23;20461;-90
2022/04/11 11:05:30;;;;;;;6.30;2.20;;;;;;;;;;6153035;23;20498;-90
2022/04/11 11:08:25;;;;;;;7.72;2.05;;;;;;;;;;6121215;23;20005;-90
2022/04/11 11:10:55;;;;;;;6.00;2.00;;;;;;;;;;6147210;23;20103;-90
2022/04/11 11:13:36;;;;;;;8.13;1.90;;;;;;;;;;6120833;23;20051;-91
2022/04/11 11:16:14;;;;;;;4.78;2.17;;;;;;;;;;6122616;23;20009;-91
2022/04/11 11:18:51;;;;;;;3.93;1.80;;;;;;;;;;6147283;23;20073;-90
2022/04/11 11:21:25;;;;;;;5.33;1.83;;;;;;;;;;6120847;23;20233;-89
2022/04/11 11:24:03;;;;;;;5.85;1.92;;;;;;;;;;6120754;23;20040;-91
2022/04/11 11:26:48;;;;;;;2.65;1.98;;;;;;;;;;6121901;23;20104;-92
2022/04/11 11:29:14;;;;;;;5.97;2.40;;;;;;;;;;6146712;23;20060;-90
2022/04/11 11:31:43;;;;;;;3.95;2.10;;;;;;;;;;6144848;23;20001;-90
2022/04/11 11:34:11;;;;;;;4.35;2.20;;;;;;;;;;6118608;23;20446;-90
2022/04/11 11:36:40;;;;;;;8.95;2.30;;;;;;;;;;6147690;23;20378;-90
2022/04/11 11:39:19;;;;;;;6.07;2.05;;;;;;;;;;6122306;23;20005;-91
2022/04/11 11:41:46;;;;;;;7.18;2.05;;;;;;;;;;6147023;23;20013;-90
2022/04/11 11:44:15;;;;;;;3.35;2.17;;;;;;;;;;6121282;23;20006;-91
2022/04/11 11:46:47;;;;;;;5.10;2.70;;;;;;;;;;6120254;23;20020;-91
2022/04/11 11:49:13;;;;;;;5.30;2.30;;;;;;;;;;6145392;23;20072;-91
2022/04/11 11:51:42;;;;;;;5.95;2.13;;;;;;;;;;6120667;23;20006;-90
2022/04/11 11:54:16;;;;;;;4.78;2.25;;;;;;;;;;6121768;23;20012;-91
2022/04/11 11:56:46;;;;;;;4.85;2.10;;;;;;;;;;6120312;23;20005;-90
2022/04/11 11:59:15;;;;;;;6.95;2.00;;;;;;;;;;6120269;23;20041;-92
2022/04/11 12:04:18;;;;;;;7.53;2.08;;;;;;;;;;6120410;23;20006;-92
2022/04/11 12:04:32;;;;;;;4.30;2.05;;;;;;;;;;6145114;23;20014;-90
2022/04/11 12:06:58;;;;;;;3.70;2.10;;;;;;;;;;6122544;23;20461;-90
2022/04/11 12:09:24;;;;;;;5.65;2.42;;;;;;;;;;6120740;23;20036;-90
2022/04/11 12:11:57;;;;;;;5.55;2.28;;;;;;;;;;6120107;23;20028;-90
2022/04/11 12:14:23;;;;;;;4.63;2.22;;;;;;;;;;6119603;23;20437;-91
2022/04/11 12:16:57;;;;;;;10.52;2.40;;;;;;;;;;6145689;23;20346;-90
2022/04/11 12:19:38;;;;;;;4.65;2.25;;;;;;;;;;6119851;23;20010;-90
2022/04/11 12:22:15;;;;;;;10.40;2.38;;;;;;;;;;6146862;23;20041;-92
2022/04/11 12:24:41;;;;;;;3.75;2.00;;;;;;;;;;6119488;23;20024;-90
2022/04/11 12:27:13;;;;;;;6.15;2.47;;;;;;;;;;6147128;23;20005;-90
2022/04/11 12:29:46;;;;;;;14.45;2.35;;;;;;;;;;6119424;23;20442;-90
2022/04/11 12:32:17;;;;;;;5.18;2.25;;;;;;;;;;6118914;23;20423;-91
2022/04/11 12:34:44;;;;;;;10.02;2.17;;;;;;;;;;6119377;23;20002;-93
2022/04/11 12:37:12;;;;;;;7.70;2.13;;;;;;;;;;6119573;23;20108;-90
2022/04/11 12:39:54;;;;;;;10.20;2.40;;;;;;;;;;6121007;23;20075;-91
2022/04/11 12:42:24;;;;;;;9.18;2.50;;;;;;;;;;6119962;23;20021;-91
2022/04/11 12:45:00;;;;;;;6.85;2.35;;;;;;;;;;6119517;23;20017;-91
2022/04/11 12:47:26;;;;;;;8.23;2.70;;;;;;;;;;6144836;23;20009;-90
2022/04/11 12:49:57;;;;;;;9.93;2.40;;;;;;;;;;6145931;23;20006;-90
2022/04/11 12:52:25;;;;;;;9.52;2.40;;;;;;;;;;6119974;23;20002;-90
2022/04/11 12:54:52;;;;;;;8.50;2.30;;;;;;;;;;6119869;23;20349;-90
2022/04/11 12:57:23;;;;;;;6.85;2.33;;;;;;;;;;6119661;23;20067;-90
2022/04/11 12:59:49;;;;;;;7.30;2.22;;;;;;;;;;6145705;23;20076;-89
2022/04/11 13:02:16;;;;;;;6.95;2.40;;;;;;;;;;6119720;23;19997;-91
2022/04/11 13:04:43;;;;;;;8.55;2.40;;;;;;;;;;6145627;23;20020;-92
2022/04/11 13:07:10;;;;;;;7.60;2.72;;;;;;;;;;6145607;23;19997;-91
2022/04/11 13:09:36;;;;;;;4.30;2.08;;;;;;;;;;6120315;22;20082;-90
2022/04/11 13:12:03;;;;;;;7.95;2.10;;;;;;;;;;6119199;23;20100;-89
2022/04/11 13:14:29;;;;;;;6.82;2.28;;;;;;;;;;6118756;23;20056;-89
2022/04/11 13:19:40;;;;;;;6.78;2.25;;;;;;;;;;6146009;23;20021;-92
2022/04/11 13:22:06;;;;;;;6.47;2.28;;;;;;;;;;6121099;23;20216;-88
2022/04/11 13:24:52;;;;;;;5.47;2.20;;;;;;;;;;6144821;23;20081;-90
2022/04/11 13:27:26;;;;;;;3.90;2.20;;;;;;;;;;6119858;23;20009;-91
2022/04/11 13:30:05;;;;;;;;;;;;;;;;;;;;;
2022/04/11 13:32:36;;;;;;;11.63;2.50;;;;;;;;;;6145382;23;20093;-90
2022/04/11 13:38:03;;;;;;;8.25;2.40;;;;;;;;;;6157136;23;20013;-91
2022/04/11 13:40:46;;;;;;;9.60;2.28;;;;;;;;;;6146851;23;20006;-92
2022/04/11 13:43:21;;;;;;;5.57;2.10;;;;;;;;;;6120358;23;20002;-89
2022/04/11 13:46:14;;;;;;;5.35;2.88;;;;;;;;;;6120774;23;20014;-88
2022/04/11 13:48:56;;;;;;;8.68;2.40;;;;;;;;;;6122580;23;19997;-90
2022/04/11 13:54:27;;;;;;;4.70;2.08;;;;;;;;;;6179266;23;20002;-90
2022/04/11 13:57:22;;;;;;;7.50;2.15;;;;;;;;;;6121556;23;20040;-90
2022/04/11 14:00:03;;;;;;;7.35;2.10;;;;;;;;;;6122367;23;20021;-90
2022/04/11 14:02:30;;;;;;;5.38;2.22;;;;;;;;;;6146783;23;20029;-89
2022/04/11 14:04:56;;;;;;;7.97;2.30;;;;;;;;;;6146664;23;20013;-88
2022/04/11 14:07:22;;;;;;;8.27;2.53;;;;;;;;;;6119389;23;20067;-88
2022/04/11 14:09:48;;;;;;;5.55;2.13;;;;;;;;;;6146844;23;20320;-89
2022/04/11 14:12:14;;;;;;;7.50;2.60;;;;;;;;;;6147036;23;20013;-90
2022/04/11 14:14:45;;;;;;;7.03;2.55;;;;;;;;;;6121708;23;20012;-90
2022/04/11 14:17:11;;;;;;;7.93;2.58;;;;;;;;;;6119970;23;20013;-89
2022/04/11 14:19:40;;;;;;;5.90;2.58;;;;;;;;;;6121835;23;20008;-89
2022/04/11 14:22:06;;;;;;;6.80;2.30;;;;;;;;;;6120924;23;20017;-89
2022/04/11 14:24:49;;;;;;;15.25;2.25;;;;;;;;;;6120899;23;20617;-90
2022/04/11 14:27:16;;;;;;;9.68;2.88;;;;;;;;;;6146543;23;20005;-88
2022/04/11 14:29:43;;;;;;;7.63;2.40;;;;;;;;;;6147972;23;20006;-88
2022/04/11 14:32:10;;;;;;;7.82;2.25;;;;;;;;;;6146421;23;20009;-86
2022/04/11 14:34:36;;;;;;;5.80;2.00;;;;;;;;;;6146604;23;20025;-87
2022/04/11 14:37:02;;;;;;;9.65;2.35;;;;;;;;;;6146016;23;19994;-90
2022/04/11 14:39:29;;;;;;;10.63;2.78;;;;;;;;;;6146704;23;20001;-89
2022/04/11 14:41:56;;;;;;;6.93;2.28;;;;;;;;;;6120860;23;20020;-88
2022/04/11 14:44:22;;;;;;;6.38;2.15;;;;;;;;;;6145495;23;20373;-87
2022/04/11 14:46:48;;;;;;;6.95;2.25;;;;;;;;;;6144207;23;20058;-88
2022/04/11 14:49:14;;;;;;;9.02;2.55;;;;;;;;;;6120010;23;20450;-88
2022/04/11 14:51:40;;;;;;;11.48;2.17;;;;;;;;;;6120630;23;20013;-88
2022/04/11 14:54:07;;;;;;;9.35;2.50;;;;;;;;;;6119349;23;20010;-87
2022/04/11 14:56:33;;;;;;;9.75;2.85;;;;;;;;;;6119492;22;20270;-89
2022/04/11 14:58:59;;;;;;;9.60;3.08;;;;;;;;;;6146481;23;20001;-88
2022/04/11 15:01:25;;;;;;;16.80;2.85;;;;;;;;;;6119554;23;20051;-88